Time,TemperatureF,DewpointF,PressureIn,WindDirection,WindDirectionDegrees,WindSpeedMPH,WindSpeedGustMPH,Humidity,HourlyPrecipIn,Conditions,Clouds,dailyrainin,SoftwareType,DateUTC
2013-02-05 00:01:00,29.5,28.5,29.56,East,90,0.0,0.0,96,0.00,CLR,,0.00,WeatherDisplay:10.37,2013-02-05 09:01:00,
2013-02-05 00:06:00,29.1,28.1,29.53,East,90,0.0,0.0,96,0.00,CLR,,0.00,WeatherDisplay:10.37,2013-02-05 09:06:00,
2013-02-05 00:11:00,28.9,27.9,29.53,East,90,0.0,0.0,96,0.00,CLR,,0.00,WeatherDisplay:10.37,2013-02-05 09:11:00,
2013-02-05 00:16:00,28.8,27.8,29.53,East,90,0.0,0.0,96,0.00,CLR,,0.00,WeatherDisplay:10.37,2013-02-05 09:16:00,
2013-02-05 00:21:00,28.6,27.6,29.56,East,90,0.0,0.0,96,0.00,CLR,,0.00,WeatherDisplay:10.37,2013-02-05 09:21:00,
2013-02-05 00:26:00,28.2,27.2,29.56,East,90,0.0,0.0,96,0.00,CLR,,0.00,WeatherDisplay:10.37,2013-02-05 09:26:00,
2013-02-05 00:31:00,28.0,27.3,29.56,East,90,0.0,0.0,97,0.00,CLR,,0.00,WeatherDisplay:10.37,2013-02-05 09:31:00,
2013-02-05 00:36:00,28.0,27.3,29.56,East,90,0.0,0.0,97,0.00,CLR,,0.00,WeatherDisplay:10.37,2013-02-05 09:36:00,
2013-02-05 00:41:00,28.0,27.3,29.56,East,90,0.0,0.0,97,0.00,CLR,,0.00,WeatherDisplay:10.37,2013-02-05 09:41:00,
2013-02-05 00:46:00,28.0,27.3,29.56,ENE,68,0.0,0.0,97,0.00,CLR,,0.00,WeatherDisplay:10.37,2013-02-05 09:46:00,
2013-02-05 00:51:00,27.9,27.1,29.56,ENE,68,0.0,0.0,97,0.00,CLR,,0.00,WeatherDisplay:10.37,2013-02-05 09:51:00,
2013-02-05 00:56:00,27.9,27.1,29.56,ENE,68,0.0,0.0,97,0.00,CLR,,0.00,WeatherDisplay:10.37,2013-02-05 09:56:00,
2013-02-05 01:01:00,27.9,27.4,29.56,ENE,68,0.0,0.0,98,0.00,CLR,,0.00,WeatherDisplay:10.37,2013-02-05 10:01:00,
2013-02-05 01:06:00,27.9,27.4,29.56,ENE,68,0.0,0.0,98,0.00,CLR,,0.00,WeatherDisplay:10.37,2013-02-05 10:06:00,
2013-02-05 01:11:00,27.9,27.4,29.56,ENE,68,0.0,0.0,98,0.00,CLR,,0.00,WeatherDisplay:10.37,2013-02-05 10:11:00,
2013-02-05 01:16:00,27.7,27.2,29.56,ENE,68,0.0,0.0,98,0.00,CLR,,0.00,WeatherDisplay:10.37,2013-02-05 10:16:00,
2013-02-05 01:21:00,27.7,27.2,29.53,ENE,68,0.0,0.0,98,0.00,CLR,,0.00,WeatherDisplay:10.37,2013-02-05 10:21:00,
2013-02-05 01:26:00,27.5,27.0,29.53,ENE,68,0.0,0.0,98,0.00,CLR,,0.00,WeatherDisplay:10.37,2013-02-05 10:26:00,
2013-02-05 01:31:00,27.3,26.6,29.53,ESE,112,0.0,0.0,97,0.00,CLR,,0.00,WeatherDisplay:10.37,2013-02-05 10:31:00,
2013-02-05 01:36:00,27.1,26.4,29.53,ESE,112,0.0,0.0,97,0.00,CLR,,0.00,WeatherDisplay:10.37,2013-02-05 10:36:00,
2013-02-05 01:41:00,27.0,26.2,29.53,ESE,112,0.0,0.0,97,0.00,CLR,,0.00,WeatherDisplay:10.37,2013-02-05 10:41:00,
2013-02-05 01:46:00,26.6,25.9,29.53,ESE,112,0.0,0.0,97,0.00,CLR,,0.00,WeatherDisplay:10.37,2013-02-05 10:46:00,
2013-02-05 01:51:00,26.6,25.9,29.56,ESE,112,0.0,0.0,97,0.00,CLR,,0.00,WeatherDisplay:10.37,2013-02-05 10:51:00,
2013-02-05 01:56:00,26.8,26.3,29.56,ESE,112,0.0,0.0,98,0.00,CLR,,0.00,WeatherDisplay:10.37,2013-02-05 10:56:00,
2013-02-05 02:01:00,26.4,25.9,29.56,ESE,112,0.0,0.0,98,0.00,CLR,,0.00,WeatherDisplay:10.37,2013-02-05 11:01:00,
2013-02-05 02:06:00,26.2,25.8,29.56,South,180,0.0,0.0,98,0.00,CLR,,0.00,WeatherDisplay:10.37,2013-02-05 11:06:00,
2013-02-05 02:11:00,25.9,25.4,29.56,South,180,0.0,0.0,98,0.00,CLR,,0.00,WeatherDisplay:10.37,2013-02-05 11:11:00,
2013-02-05 02:16:00,25.5,24.8,29.56,SSE,158,0.0,0.0,97,0.00,CLR,,0.00,WeatherDisplay:10.37,2013-02-05 11:16:00,
2013-02-05 02:21:00,25.5,25.0,29.53,SSE,158,0.0,0.0,98,0.00,CLR,,0.00,WeatherDisplay:10.37,2013-02-05 11:21:00,
2013-02-05 02:26:00,25.3,24.9,29.53,SSE,158,0.0,0.0,98,0.00,CLR,,0.00,WeatherDisplay:10.37,2013-02-05 11:26:00,
2013-02-05 02:31:00,25.2,24.7,29.53,SSE,158,0.0,0.0,98,0.00,CLR,,0.00,WeatherDisplay:10.37,2013-02-05 11:31:00,
2013-02-05 02:36:00,25.0,24.5,29.53,SSE,158,0.0,0.0,98,0.00,CLR,,0.00,WeatherDisplay:10.37,2013-02-05 11:36:00,
2013-02-05 02:41:00,24.8,24.3,29.53,SSE,158,0.0,0.0,98,0.00,CLR,,0.00,WeatherDisplay:10.37,2013-02-05 11:41:00,
2013-02-05 02:46:00,24.8,24.3,29.53,SSE,158,0.0,0.0,98,0.00,CLR,,0.00,WeatherDisplay:10.37,2013-02-05 11:46:00,
2013-02-05 02:51:00,24.8,24.3,29.53,SSE,158,0.0,0.0,98,0.00,CLR,,0.00,WeatherDisplay:10.37,2013-02-05 11:51:00,
2013-02-05 02:56:00,24.6,24.1,29.53,SSE,158,0.0,0.0,98,0.00,CLR,,0.00,WeatherDisplay:10.37,2013-02-05 11:56:00,
2013-02-05 03:01:00,24.4,24.0,29.53,SSE,158,0.0,0.0,98,0.00,CLR,,0.00,WeatherDisplay:10.37,2013-02-05 12:01:00,
2013-02-05 03:06:00,24.3,23.8,29.53,SSE,158,0.0,0.0,98,0.00,CLR,,0.00,WeatherDisplay:10.37,2013-02-05 12:06:00,
2013-02-05 03:11:00,24.3,23.8,29.53,SSE,158,0.0,0.0,98,0.00,CLR,,0.00,WeatherDisplay:10.37,2013-02-05 12:11:00,
2013-02-05 03:16:00,24.3,23.8,29.53,SSE,158,0.0,0.0,98,0.00,CLR,,0.00,WeatherDisplay:10.37,2013-02-05 12:16:00,
2013-02-05 03:21:00,24.3,23.8,29.53,SSE,158,0.0,0.0,98,0.00,CLR,,0.00,WeatherDisplay:10.37,2013-02-05 12:21:00,
2013-02-05 03:26:00,24.1,23.6,29.53,SSE,158,0.0,0.0,98,0.00,CLR,,0.00,WeatherDisplay:10.37,2013-02-05 12:26:00,
2013-02-05 03:31:00,23.9,23.4,29.53,SSE,158,0.0,0.0,98,0.00,CLR,,0.00,WeatherDisplay:10.37,2013-02-05 12:31:00,
2013-02-05 03:36:00,24.1,23.6,29.53,SSE,158,0.0,0.0,98,0.00,CLR,,0.00,WeatherDisplay:10.37,2013-02-05 12:36:00,
2013-02-05 03:41:00,23.9,23.4,29.53,SSE,158,0.0,0.0,98,0.00,CLR,,0.00,WeatherDisplay:10.37,2013-02-05 12:41:00,
2013-02-05 03:46:00,23.7,23.2,29.53,SSE,158,0.0,0.0,98,0.00,CLR,,0.00,WeatherDisplay:10.37,2013-02-05 12:46:00,
2013-02-05 03:51:00,23.7,23.2,29.53,SSE,158,0.0,0.0,98,0.00,CLR,,0.00,WeatherDisplay:10.37,2013-02-05 12:51:00,
2013-02-05 03:56:00,23.9,23.4,29.53,SSE,158,0.0,0.0,98,0.00,CLR,,0.00,WeatherDisplay:10.37,2013-02-05 12:56:00,
2013-02-05 04:01:00,23.9,23.4,29.53,SSE,158,0.0,0.0,98,0.00,CLR,,0.00,WeatherDisplay:10.37,2013-02-05 13:01:00,
2013-02-05 04:06:00,23.9,23.4,29.53,SSE,158,0.0,0.0,98,0.00,CLR,,0.00,WeatherDisplay:10.37,2013-02-05 13:06:00,
2013-02-05 04:11:00,23.9,23.4,29.53,South,180,0.0,0.0,98,0.00,CLR,,0.00,WeatherDisplay:10.37,2013-02-05 13:11:00,
2013-02-05 04:16:00,24.3,23.8,29.53,South,180,0.0,0.0,98,0.00,CLR,,0.00,WeatherDisplay:10.37,2013-02-05 13:16:00,
2013-02-05 04:21:00,24.3,23.8,29.53,South,180,0.0,0.0,98,0.00,CLR,,0.00,WeatherDisplay:10.37,2013-02-05 13:21:00,
2013-02-05 04:26:00,24.3,23.8,29.53,South,180,0.0,0.0,98,0.00,CLR,,0.00,WeatherDisplay:10.37,2013-02-05 13:26:00,
2013-02-05 04:31:00,24.3,23.8,29.53,South,180,0.0,0.0,98,0.00,CLR,,0.00,WeatherDisplay:10.37,2013-02-05 13:31:00,
2013-02-05 04:36:00,24.4,24.0,29.50,SSE,158,0.0,0.0,98,0.00,CLR,,0.00,WeatherDisplay:10.37,2013-02-05 13:36:00,
2013-02-05 04:41:00,24.4,24.0,29.50,SSE,158,0.0,0.0,98,0.00,CLR,,0.00,WeatherDisplay:10.37,2013-02-05 13:41:00,
2013-02-05 04:46:00,24.6,24.1,29.50,SSE,158,0.0,0.0,98,0.00,CLR,,0.00,WeatherDisplay:10.37,2013-02-05 13:46:00,
2013-02-05 04:51:00,24.6,24.1,29.50,SSE,158,0.0,0.0,98,0.00,CLR,,0.00,WeatherDisplay:10.37,2013-02-05 13:51:00,
2013-02-05 04:56:00,24.6,24.1,29.50,SSE,158,0.0,0.0,98,0.00,CLR,,0.00,WeatherDisplay:10.37,2013-02-05 13:56:00,
2013-02-05 05:01:00,25.0,24.5,29.50,SSE,158,0.0,0.0,98,0.00,CLR,,0.00,WeatherDisplay:10.37,2013-02-05 14:01:00,
2013-02-05 05:06:00,25.0,24.5,29.50,SSE,158,0.0,0.0,98,0.00,CLR,,0.00,WeatherDisplay:10.37,2013-02-05 14:06:00,
2013-02-05 05:11:00,25.2,24.7,29.50,SSE,158,0.0,0.0,98,0.00,CLR,,0.00,WeatherDisplay:10.37,2013-02-05 14:11:00,
2013-02-05 05:16:00,25.2,24.7,29.50,SSE,158,0.0,0.0,98,0.00,CLR,,0.00,WeatherDisplay:10.37,2013-02-05 14:16:00,
2013-02-05 05:21:00,25.2,24.7,29.50,SSE,158,0.0,0.0,98,0.00,CLR,,0.00,WeatherDisplay:10.37,2013-02-05 14:21:00,
2013-02-05 05:26:00,25.3,24.9,29.50,SSE,158,0.0,0.0,98,0.00,CLR,,0.00,WeatherDisplay:10.37,2013-02-05 14:26:00,
2013-02-05 05:31:00,25.3,24.9,29.50,SSE,158,0.0,0.0,98,0.00,CLR,,0.00,WeatherDisplay:10.37,2013-02-05 14:31:00,
2013-02-05 05:36:00,25.3,24.9,29.50,SSE,158,0.0,0.0,98,0.00,CLR,,0.00,WeatherDisplay:10.37,2013-02-05 14:36:00,
2013-02-05 05:41:00,25.5,25.0,29.50,SSE,158,0.0,0.0,98,0.00,CLR,,0.00,WeatherDisplay:10.37,2013-02-05 14:41:00,
2013-02-05 05:46:00,25.3,24.9,29.50,SSE,158,0.0,0.0,98,0.00,CLR,,0.00,WeatherDisplay:10.37,2013-02-05 14:46:00,
2013-02-05 05:51:00,25.3,24.9,29.50,SSE,158,0.0,0.0,98,0.00,CLR,,0.00,WeatherDisplay:10.37,2013-02-05 14:51:00,
2013-02-05 05:56:00,25.5,25.0,29.50,SSE,158,0.0,0.0,98,0.00,CLR,,0.00,WeatherDisplay:10.37,2013-02-05 14:56:00,
2013-02-05 06:01:00,25.3,24.9,29.50,SSE,158,0.0,0.0,98,0.00,CLR,,0.00,WeatherDisplay:10.37,2013-02-05 15:01:00,
2013-02-05 06:06:00,25.5,25.0,29.50,SSE,158,0.0,0.0,98,0.00,CLR,,0.00,WeatherDisplay:10.37,2013-02-05 15:06:00,
2013-02-05 06:11:00,25.5,25.0,29.50,SSE,158,0.0,0.0,98,0.00,CLR,,0.00,WeatherDisplay:10.37,2013-02-05 15:11:00,
2013-02-05 06:16:00,25.7,25.2,29.50,SSE,158,0.0,0.0,98,0.00,CLR,,0.00,WeatherDisplay:10.37,2013-02-05 15:16:00,
2013-02-05 06:21:00,25.9,25.4,29.50,SSE,158,0.0,0.0,98,0.00,CLR,,0.00,WeatherDisplay:10.37,2013-02-05 15:21:00,
2013-02-05 06:26:00,25.9,25.4,29.50,SSE,158,0.0,0.0,98,0.00,CLR,,0.00,WeatherDisplay:10.37,2013-02-05 15:26:00,
2013-02-05 06:31:00,26.1,25.6,29.50,SSE,158,0.0,0.0,98,0.00,CLR,,0.00,WeatherDisplay:10.37,2013-02-05 15:31:00,
2013-02-05 06:36:00,26.1,25.6,29.50,SSE,158,0.0,0.0,98,0.00,CLR,,0.00,WeatherDisplay:10.37,2013-02-05 15:36:00,
2013-02-05 06:41:00,26.1,25.6,29.50,SSE,158,0.0,0.0,98,0.00,CLR,,0.00,WeatherDisplay:10.37,2013-02-05 15:41:00,
2013-02-05 06:46:00,26.2,25.8,29.50,North,0,0.0,0.0,98,0.00,CLR,,0.00,WeatherDisplay:10.37,2013-02-05 15:46:00,
2013-02-05 06:51:00,27.0,26.5,29.50,North,0,0.0,0.0,98,0.00,CLR,,0.00,WeatherDisplay:10.37,2013-02-05 15:51:00,
2013-02-05 06:56:00,27.0,26.5,29.50,North,0,0.0,0.0,98,0.00,CLR,,0.00,WeatherDisplay:10.37,2013-02-05 15:56:00,
2013-02-05 07:01:00,26.8,26.3,29.50,North,0,0.0,0.0,98,0.00,CLR,,0.00,WeatherDisplay:10.37,2013-02-05 16:01:00,
2013-02-05 07:06:00,26.6,26.1,29.50,North,0,0.0,0.0,98,0.00,CLR,,0.00,WeatherDisplay:10.37,2013-02-05 16:06:00,
2013-02-05 07:11:00,26.8,26.3,29.50,North,0,0.0,0.0,98,0.00,CLR,,0.00,WeatherDisplay:10.37,2013-02-05 16:11:00,
2013-02-05 07:16:00,26.8,26.3,29.50,North,0,0.0,0.0,98,0.00,CLR,,0.00,WeatherDisplay:10.37,2013-02-05 16:16:00,
2013-02-05 07:21:00,26.8,26.3,29.50,North,0,0.0,0.0,98,0.00,CLR,,0.00,WeatherDisplay:10.37,2013-02-05 16:21:00,
2013-02-05 07:26:00,27.0,26.5,29.50,North,0,0.0,0.0,98,0.00,CLR,,0.00,WeatherDisplay:10.37,2013-02-05 16:26:00,
2013-02-05 07:31:00,27.0,26.5,29.50,North,0,0.0,0.0,98,0.00,CLR,,0.00,WeatherDisplay:10.37,2013-02-05 16:31:00,
2013-02-05 07:36:00,27.1,26.7,29.50,North,0,0.0,0.0,98,0.00,CLR,,0.00,WeatherDisplay:10.37,2013-02-05 16:36:00,
2013-02-05 07:41:00,27.7,27.2,29.50,North,0,0.0,0.0,98,0.00,CLR,,0.00,WeatherDisplay:10.37,2013-02-05 16:41:00,
2013-02-05 07:47:00,27.9,27.4,29.50,NNW,338,0.0,0.0,98,0.00,CLR,,0.00,WeatherDisplay:10.37,2013-02-05 16:47:00,
2013-02-05 07:52:00,27.9,27.4,29.50,NNW,338,0.0,0.0,98,0.00,CLR,,0.00,WeatherDisplay:10.37,2013-02-05 16:52:00,
2013-02-05 07:57:00,27.9,27.4,29.50,NNW,338,0.0,0.0,98,0.00,CLR,,0.00,WeatherDisplay:10.37,2013-02-05 16:57:00,
2013-02-05 08:03:00,27.9,27.4,29.50,NNW,338,0.0,0.0,98,0.00,CLR,,0.00,WeatherDisplay:10.37,2013-02-05 17:03:00,
2013-02-05 08:08:00,27.9,27.4,29.50,NNW,338,0.0,0.0,98,0.00,CLR,,0.00,WeatherDisplay:10.37,2013-02-05 17:08:00,
2013-02-05 08:13:00,27.7,27.2,29.50,NNW,338,0.0,0.0,98,0.00,CLR,,0.00,WeatherDisplay:10.37,2013-02-05 17:13:00,
2013-02-05 08:18:00,27.5,27.0,29.50,NNW,338,0.0,0.0,98,0.00,CLR,,0.00,WeatherDisplay:10.37,2013-02-05 17:18:00,
2013-02-05 08:23:00,27.3,26.8,29.50,NNW,338,0.0,0.0,98,0.00,CLR,,0.00,WeatherDisplay:10.37,2013-02-05 17:23:00,
2013-02-05 08:28:00,27.1,26.7,29.50,NNW,338,0.0,0.0,98,0.00,CLR,,0.00,WeatherDisplay:10.37,2013-02-05 17:28:00,
2013-02-05 08:34:00,27.0,26.5,29.50,NNW,338,0.0,0.0,98,0.00,CLR,,0.00,WeatherDisplay:10.37,2013-02-05 17:34:00,
2013-02-05 08:39:00,27.0,26.5,29.50,NNW,338,0.0,0.0,98,0.00,CLR,,0.00,WeatherDisplay:10.37,2013-02-05 17:39:00,
2013-02-05 08:44:00,27.0,26.5,29.50,NNW,338,0.0,0.0,98,0.00,CLR,,0.00,WeatherDisplay:10.37,2013-02-05 17:44:00,
2013-02-05 08:49:00,27.0,26.5,29.50,NNW,338,0.0,0.0,98,0.00,CLR,,0.00,WeatherDisplay:10.37,2013-02-05 17:49:00,
2013-02-05 08:54:00,27.0,26.5,29.50,NNW,338,0.0,0.0,98,0.00,CLR,,0.00,WeatherDisplay:10.37,2013-02-05 17:54:00,
2013-02-05 08:59:00,27.0,26.5,29.50,NNW,338,0.0,0.0,98,0.00,CLR,,0.00,WeatherDisplay:10.37,2013-02-05 17:59:00,
2013-02-05 09:04:00,26.8,26.3,29.50,NNW,338,0.0,0.0,98,0.00,CLR,,0.00,WeatherDisplay:10.37,2013-02-05 18:04:00,
2013-02-05 09:09:00,26.6,26.1,29.50,NNW,338,0.0,0.0,98,0.00,CLR,,0.00,WeatherDisplay:10.37,2013-02-05 18:09:00,
2013-02-05 09:14:00,26.6,26.1,29.50,NNW,338,0.0,0.0,98,0.00,CLR,,0.00,WeatherDisplay:10.37,2013-02-05 18:14:00,
2013-02-05 09:19:00,26.8,26.3,29.50,NNW,338,0.0,0.0,98,0.00,CLR,,0.00,WeatherDisplay:10.37,2013-02-05 18:19:00,
2013-02-05 09:24:00,26.6,26.1,29.50,NNW,338,0.0,0.0,98,0.00,CLR,,0.00,WeatherDisplay:10.37,2013-02-05 18:24:00,
2013-02-05 09:29:00,26.6,26.1,29.50,NNW,338,0.0,0.0,98,0.00,CLR,,0.00,WeatherDisplay:10.37,2013-02-05 18:29:00,
2013-02-05 09:34:00,26.8,26.3,29.50,NNW,338,0.0,0.0,98,0.00,CLR,,0.00,WeatherDisplay:10.37,2013-02-05 18:34:00,
2013-02-05 09:39:00,26.6,26.1,29.50,NNW,338,0.0,0.0,98,0.00,CLR,,0.00,WeatherDisplay:10.37,2013-02-05 18:39:00,
2013-02-05 09:44:00,26.8,26.3,29.50,NNW,338,0.0,0.0,98,0.00,CLR,,0.00,WeatherDisplay:10.37,2013-02-05 18:44:00,
2013-02-05 09:49:00,27.0,26.5,29.50,NNW,338,0.0,0.0,98,0.00,CLR,,0.00,WeatherDisplay:10.37,2013-02-05 18:49:00,
2013-02-05 09:55:00,27.3,26.8,29.50,NNW,338,0.0,0.0,98,0.00,CLR,,0.00,WeatherDisplay:10.37,2013-02-05 18:55:00,
2013-02-05 10:00:00,27.5,27.0,29.50,NNW,338,0.0,0.0,98,0.00,CLR,,0.00,WeatherDisplay:10.37,2013-02-05 19:00:00,
2013-02-05 10:06:00,27.3,26.8,29.47,NNW,338,0.0,0.0,98,0.00,CLR,,0.00,WeatherDisplay:10.37,2013-02-05 19:06:00,
2013-02-05 10:11:00,27.5,27.0,29.47,NNW,338,0.0,0.0,98,0.00,CLR,,0.00,WeatherDisplay:10.37,2013-02-05 19:11:00,
2013-02-05 10:16:00,27.5,27.0,29.47,NNW,338,0.0,0.0,98,0.00,CLR,,0.00,WeatherDisplay:10.37,2013-02-05 19:16:00,
2013-02-05 10:21:00,27.5,27.0,29.47,NNW,338,0.0,0.0,98,0.00,CLR,,0.00,WeatherDisplay:10.37,2013-02-05 19:21:00,
2013-02-05 10:26:00,27.5,27.0,29.47,NNW,338,0.0,0.0,98,0.00,CLR,,0.00,WeatherDisplay:10.37,2013-02-05 19:26:00,
2013-02-05 10:31:00,27.7,27.2,29.47,NNW,338,0.0,0.0,98,0.00,CLR,,0.00,WeatherDisplay:10.37,2013-02-05 19:31:00,
2013-02-05 10:36:00,27.9,27.4,29.47,NNW,338,0.0,0.0,98,0.00,CLR,,0.00,WeatherDisplay:10.37,2013-02-05 19:36:00,
2013-02-05 10:41:00,28.0,27.5,29.47,NNW,338,2.4,2.4,98,0.00,CLR,,0.00,WeatherDisplay:10.37,2013-02-05 19:41:00,
2013-02-05 10:46:00,28.2,27.7,29.47,North,0,0.0,0.0,98,0.00,CLR,,0.00,WeatherDisplay:10.37,2013-02-05 19:46:00,
2013-02-05 10:51:00,28.4,27.9,29.47,NNW,338,2.3,2.3,98,0.00,CLR,,0.00,WeatherDisplay:10.37,2013-02-05 19:51:00,
2013-02-05 10:56:00,28.6,28.1,29.47,NNE,22,0.0,0.0,98,0.00,CLR,,0.00,WeatherDisplay:10.37,2013-02-05 19:56:00,
2013-02-05 11:01:00,28.8,28.3,29.47,NNW,338,0.0,0.0,98,0.00,CLR,,0.00,WeatherDisplay:10.37,2013-02-05 20:01:00,
2013-02-05 11:06:00,28.9,28.4,29.47,NNW,338,0.0,0.0,98,0.00,CLR,,0.00,WeatherDisplay:10.37,2013-02-05 20:06:00,
2013-02-05 11:11:00,28.9,28.4,29.47,NNW,338,2.3,2.3,98,0.00,CLR,,0.00,WeatherDisplay:10.37,2013-02-05 20:11:00,
2013-02-05 11:16:00,29.1,28.6,29.47,NNW,338,3.5,3.5,98,0.00,CLR,,0.00,WeatherDisplay:10.37,2013-02-05 20:16:00,
2013-02-05 11:21:00,29.1,28.6,29.47,North,0,3.5,3.5,98,0.00,CLR,,0.00,WeatherDisplay:10.37,2013-02-05 20:21:00,
2013-02-05 11:26:00,29.1,28.6,29.47,NW,315,2.6,2.6,98,0.00,CLR,,0.00,WeatherDisplay:10.37,2013-02-05 20:26:00,
2013-02-05 11:31:00,29.3,28.8,29.47,North,0,2.3,2.3,98,0.00,CLR,,0.00,WeatherDisplay:10.37,2013-02-05 20:31:00,
2013-02-05 11:36:00,29.7,29.2,29.47,NNW,338,2.3,2.3,98,0.00,CLR,,0.00,WeatherDisplay:10.37,2013-02-05 20:36:00,
2013-02-05 11:41:00,30.0,29.5,29.47,NNE,22,0.0,0.0,98,0.00,CLR,,0.00,WeatherDisplay:10.37,2013-02-05 20:41:00,
2013-02-05 11:46:00,30.2,29.5,29.47,NNW,338,2.3,0.0,97,0.00,CLR,,0.00,WeatherDisplay:10.37,2013-02-05 20:46:00,
2013-02-05 11:51:00,30.2,29.2,29.47,NNW,338,0.0,0.0,96,0.00,CLR,,0.00,WeatherDisplay:10.37,2013-02-05 20:51:00,
2013-02-05 11:56:00,30.6,29.0,29.47,NNW,338,3.8,3.8,94,0.00,CLR,,0.00,WeatherDisplay:10.37,2013-02-05 20:56:00,
2013-02-05 12:01:00,30.4,28.3,29.47,NNW,338,3.5,3.5,92,0.00,CLR,,0.00,WeatherDisplay:10.37,2013-02-05 21:01:00,
2013-02-05 12:07:00,30.6,28.5,29.47,NNW,338,2.4,2.4,92,0.00,CLR,,0.00,WeatherDisplay:10.37,2013-02-05 21:07:00,
2013-02-05 12:12:00,32.0,29.7,29.47,NNW,338,2.3,2.3,91,0.00,CLR,,0.00,WeatherDisplay:10.37,2013-02-05 21:12:00,
2013-02-05 12:17:00,32.5,29.7,29.47,North,0,3.5,3.5,89,0.00,CLR,,0.00,WeatherDisplay:10.37,2013-02-05 21:17:00,
2013-02-05 12:23:00,33.6,30.2,29.47,North,0,2.3,2.3,87,0.00,CLR,,0.00,WeatherDisplay:10.37,2013-02-05 21:23:00,
2013-02-05 12:28:00,32.7,28.4,29.47,NNW,338,3.5,3.5,84,0.00,CLR,,0.00,WeatherDisplay:10.37,2013-02-05 21:28:00,
2013-02-05 12:33:00,30.9,26.9,29.47,North,0,2.4,2.6,85,0.00,CLR,,0.00,WeatherDisplay:10.37,2013-02-05 21:33:00,
2013-02-05 12:38:00,30.2,26.8,29.47,NNW,338,3.5,3.5,87,0.00,CLR,,0.00,WeatherDisplay:10.37,2013-02-05 21:38:00,
2013-02-05 12:43:00,29.8,26.4,29.47,North,0,2.4,2.4,87,0.00,CLR,,0.00,WeatherDisplay:10.37,2013-02-05 21:43:00,
2013-02-05 12:48:00,30.0,26.6,29.47,NNW,338,2.6,2.6,87,0.00,CLR,,0.00,WeatherDisplay:10.37,2013-02-05 21:48:00,
2013-02-05 12:53:00,30.2,26.8,29.47,NNW,338,2.6,0.0,87,0.00,CLR,,0.00,WeatherDisplay:10.37,2013-02-05 21:53:00,
2013-02-05 12:58:00,29.8,26.4,29.47,NNE,22,2.3,2.3,87,0.00,CLR,,0.00,WeatherDisplay:10.37,2013-02-05 21:58:00,
2013-02-05 13:03:00,29.7,25.4,29.47,NNW,338,2.3,2.3,84,0.00,CLR,,0.00,WeatherDisplay:10.37,2013-02-05 22:03:00,
2013-02-05 13:08:00,29.5,25.5,29.47,NNW,338,2.9,2.9,85,0.00,CLR,,0.00,WeatherDisplay:10.37,2013-02-05 22:08:00,
2013-02-05 13:13:00,29.5,25.5,29.47,NNE,22,2.3,2.3,85,0.00,CLR,,0.00,WeatherDisplay:10.37,2013-02-05 22:13:00,
2013-02-05 13:18:00,29.5,25.5,29.47,ENE,68,3.5,3.5,85,0.00,CLR,,0.00,WeatherDisplay:10.37,2013-02-05 22:18:00,
2013-02-05 13:23:00,29.5,25.5,29.44,North,0,3.5,3.5,85,0.00,CLR,,0.00,WeatherDisplay:10.37,2013-02-05 22:23:00,
2013-02-05 13:28:00,29.5,25.5,29.44,North,0,4.6,4.6,85,0.00,CLR,,0.00,WeatherDisplay:10.37,2013-02-05 22:28:00,
2013-02-05 13:33:00,29.5,25.5,29.44,North,0,3.5,3.5,85,0.00,CLR,,0.00,WeatherDisplay:10.37,2013-02-05 22:33:00,
2013-02-05 13:38:00,29.5,25.8,29.44,NNW,338,4.6,4.6,86,0.00,CLR,,0.00,WeatherDisplay:10.37,2013-02-05 22:38:00,
2013-02-05 13:43:00,29.7,26.0,29.44,NNW,338,2.3,2.3,86,0.00,CLR,,0.00,WeatherDisplay:10.37,2013-02-05 22:43:00,
2013-02-05 13:48:00,29.8,26.2,29.44,NNW,338,2.6,2.6,86,0.00,CLR,,0.00,WeatherDisplay:10.37,2013-02-05 22:48:00,
2013-02-05 13:53:00,29.7,25.7,29.44,NNW,338,3.5,3.5,85,0.00,CLR,,0.00,WeatherDisplay:10.37,2013-02-05 22:53:00,
2013-02-05 13:58:00,29.5,25.5,29.44,WNW,292,2.3,2.3,85,0.00,CLR,,0.00,WeatherDisplay:10.37,2013-02-05 22:58:00,
2013-02-05 14:03:00,29.3,25.1,29.44,NNW,338,3.5,3.5,84,0.00,CLR,,0.00,WeatherDisplay:10.37,2013-02-05 23:03:00,
2013-02-05 14:08:00,29.1,24.6,29.44,North,0,2.9,2.9,83,0.00,CLR,,0.00,WeatherDisplay:10.37,2013-02-05 23:08:00,
2013-02-05 14:13:00,29.3,24.5,29.44,NNE,22,2.3,2.3,82,0.00,CLR,,0.00,WeatherDisplay:10.37,2013-02-05 23:13:00,
2013-02-05 14:18:00,29.5,24.4,29.44,North,0,2.3,2.4,81,0.00,CLR,,0.00,WeatherDisplay:10.37,2013-02-05 23:18:00,
2013-02-05 14:23:00,29.7,24.5,29.44,NNW,338,3.1,3.1,81,0.00,CLR,,0.00,WeatherDisplay:10.37,2013-02-05 23:23:00,
2013-02-05 14:28:00,30.0,24.3,29.44,North,0,2.3,0.0,79,0.00,CLR,,0.00,WeatherDisplay:10.37,2013-02-05 23:28:00,
2013-02-05 14:33:00,30.2,23.2,29.44,NW,315,3.3,3.3,75,0.00,CLR,,0.00,WeatherDisplay:10.37,2013-02-05 23:33:00,
2013-02-05 14:38:00,30.2,22.3,29.44,NNW,338,3.8,3.8,72,0.00,CLR,,0.00,WeatherDisplay:10.37,2013-02-05 23:38:00,
2013-02-05 14:44:00,30.4,20.4,29.44,NNW,338,3.5,3.5,66,0.00,CLR,,0.00,WeatherDisplay:10.37,2013-02-05 23:44:00,
2013-02-05 14:49:00,30.2,19.1,29.44,North,0,3.5,3.5,63,0.00,CLR,,0.00,WeatherDisplay:10.37,2013-02-05 23:49:00,
2013-02-05 14:54:00,31.3,20.9,29.44,NW,315,0.0,1.1,65,0.00,CLR,,0.00,WeatherDisplay:10.37,2013-02-05 23:54:00,
2013-02-05 14:59:00,31.8,21.7,29.44,NNW,338,1.1,0.0,66,0.00,CLR,,0.00,WeatherDisplay:10.37,2013-02-05 23:59:00,
2013-02-05 15:04:00,32.2,21.0,29.44,North,0,2.3,2.3,63,0.00,CLR,,0.00,WeatherDisplay:10.37,2013-02-06 00:04:00,
2013-02-05 15:09:00,32.4,21.5,29.44,North,0,0.0,0.0,64,0.00,CLR,,0.00,WeatherDisplay:10.37,2013-02-06 00:09:00,
2013-02-05 15:14:00,32.2,21.4,29.44,North,0,0.0,0.0,64,0.00,CLR,,0.00,WeatherDisplay:10.37,2013-02-06 00:14:00,
2013-02-05 15:19:00,32.0,20.4,29.44,NNW,338,2.3,2.3,62,0.00,CLR,,0.00,WeatherDisplay:10.37,2013-02-06 00:19:00,
2013-02-05 15:24:00,31.5,18.4,29.44,NNW,338,3.5,3.5,58,0.00,CLR,,0.00,WeatherDisplay:10.37,2013-02-06 00:24:00,
2013-02-05 15:29:00,31.3,19.0,29.44,NNW,338,2.4,2.4,60,0.00,CLR,,0.00,WeatherDisplay:10.37,2013-02-06 00:29:00,
2013-02-05 15:35:00,31.1,19.2,29.44,NE,45,0.0,0.0,61,0.00,CLR,,0.00,WeatherDisplay:10.37,2013-02-06 00:35:00,
2013-02-05 15:40:00,30.9,19.0,29.44,NNW,338,2.3,2.3,61,0.00,CLR,,0.00,WeatherDisplay:10.37,2013-02-06 00:40:00,
2013-02-05 15:45:00,30.7,19.6,29.44,North,0,0.0,0.0,63,0.00,CLR,,0.00,WeatherDisplay:10.37,2013-02-06 00:45:00,
2013-02-05 15:51:00,30.7,19.6,29.44,North,0,0.0,0.0,63,0.00,CLR,,0.00,WeatherDisplay:10.37,2013-02-06 00:51:00,
2013-02-05 15:56:00,30.7,19.2,29.44,NNW,338,0.0,0.0,62,0.00,CLR,,0.00,WeatherDisplay:10.37,2013-02-06 00:56:00,
2013-02-05 16:01:00,30.4,19.3,29.44,NNW,338,0.0,0.0,63,0.00,CLR,,0.00,WeatherDisplay:10.37,2013-02-06 01:01:00,
2013-02-05 16:06:00,30.2,19.8,29.44,NW,315,0.0,0.0,65,0.00,CLR,,0.00,WeatherDisplay:10.37,2013-02-06 01:06:00,
2013-02-05 16:11:00,29.8,19.9,29.44,NW,315,0.0,0.0,66,0.00,CLR,,0.00,WeatherDisplay:10.37,2013-02-06 01:11:00,
2013-02-05 16:16:00,29.7,20.0,29.44,NNW,338,0.0,0.0,67,0.00,CLR,,0.00,WeatherDisplay:10.37,2013-02-06 01:16:00,
2013-02-05 16:21:00,29.7,20.4,29.44,NNW,338,0.0,0.0,68,0.00,CLR,,0.00,WeatherDisplay:10.37,2013-02-06 01:21:00,
2013-02-05 16:26:00,29.5,20.2,29.44,NNW,338,0.0,0.0,68,0.00,CLR,,0.00,WeatherDisplay:10.37,2013-02-06 01:26:00,
2013-02-05 16:31:00,29.1,20.2,29.44,NNW,338,0.0,0.0,69,0.00,CLR,,0.00,WeatherDisplay:10.37,2013-02-06 01:31:00,
2013-02-05 16:36:00,28.9,20.4,29.44,NNW,338,0.0,0.0,70,0.00,CLR,,0.00,WeatherDisplay:10.37,2013-02-06 01:36:00,
2013-02-05 16:41:00,28.8,20.5,29.44,NW,315,0.0,0.0,71,0.00,CLR,,0.00,WeatherDisplay:10.37,2013-02-06 01:41:00,
2013-02-05 16:46:00,28.9,21.7,29.44,NNW,338,0.0,0.0,74,0.00,CLR,,0.00,WeatherDisplay:10.37,2013-02-06 01:46:00,
2013-02-05 16:51:00,28.6,21.7,29.44,NNW,338,0.0,0.0,75,0.00,CLR,,0.00,WeatherDisplay:10.37,2013-02-06 01:51:00,
2013-02-05 16:56:00,28.4,22.1,29.44,NNW,338,0.0,0.0,77,0.00,CLR,,0.00,WeatherDisplay:10.37,2013-02-06 01:56:00,
2013-02-05 17:01:00,28.0,22.1,29.44,NNW,338,0.0,0.0,78,0.00,CLR,,0.00,WeatherDisplay:10.37,2013-02-06 02:01:00,
2013-02-05 17:06:00,27.9,21.9,29.44,NNW,338,0.0,0.0,78,0.00,CLR,,0.00,WeatherDisplay:10.37,2013-02-06 02:06:00,
2013-02-05 17:11:00,28.6,23.2,29.44,NNW,338,0.0,0.0,80,0.00,CLR,,0.00,WeatherDisplay:10.37,2013-02-06 02:11:00,
2013-02-05 17:16:00,28.8,23.7,29.44,NNE,22,0.0,0.0,81,0.00,CLR,,0.00,WeatherDisplay:10.37,2013-02-06 02:16:00,
2013-02-05 17:21:00,28.2,23.1,29.44,NNE,22,0.0,0.0,81,0.00,CLR,,0.00,WeatherDisplay:10.37,2013-02-06 02:21:00,
2013-02-05 17:26:00,27.9,22.8,29.44,North,0,0.0,0.0,81,0.00,CLR,,0.00,WeatherDisplay:10.37,2013-02-06 02:26:00,
2013-02-05 17:31:00,27.9,23.1,29.44,North,0,0.0,0.0,82,0.00,CLR,,0.00,WeatherDisplay:10.37,2013-02-06 02:31:00,
2013-02-05 17:36:00,27.9,23.4,29.44,North,0,0.0,0.0,83,0.00,CLR,,0.00,WeatherDisplay:10.37,2013-02-06 02:36:00,
2013-02-05 17:41:00,27.5,23.0,29.44,North,0,0.0,0.0,83,0.00,CLR,,0.00,WeatherDisplay:10.37,2013-02-06 02:41:00,
2013-02-05 17:46:00,27.5,23.0,29.44,NNE,22,0.0,0.0,83,0.00,CLR,,0.00,WeatherDisplay:10.37,2013-02-06 02:46:00,
2013-02-05 17:51:00,27.1,22.7,29.44,NNW,338,0.0,0.0,83,0.00,CLR,,0.00,WeatherDisplay:10.37,2013-02-06 02:51:00,
2013-02-05 17:56:00,27.0,22.8,29.44,North,0,0.0,0.0,84,0.00,CLR,,0.00,WeatherDisplay:10.37,2013-02-06 02:56:00,
2013-02-05 18:01:00,26.4,22.5,29.44,North,0,0.0,0.0,85,0.00,CLR,,0.00,WeatherDisplay:10.37,2013-02-06 03:01:00,
2013-02-05 18:06:00,25.9,22.0,29.44,North,0,0.0,0.0,85,0.00,CLR,,0.00,WeatherDisplay:10.37,2013-02-06 03:06:00,
2013-02-05 18:11:00,25.3,21.5,29.44,North,0,0.0,0.0,85,0.00,CLR,,0.00,WeatherDisplay:10.37,2013-02-06 03:11:00,
2013-02-05 18:16:00,25.2,21.3,29.44,North,0,0.0,0.0,85,0.00,CLR,,0.00,WeatherDisplay:10.37,2013-02-06 03:16:00,
2013-02-05 18:21:00,25.0,21.4,29.44,North,0,0.0,0.0,86,0.00,CLR,,0.00,WeatherDisplay:10.37,2013-02-06 03:21:00,
2013-02-05 18:26:00,25.2,21.6,29.44,North,0,0.0,0.0,86,0.00,CLR,,0.00,WeatherDisplay:10.37,2013-02-06 03:26:00,
2013-02-05 18:31:00,25.3,22.0,29.44,North,0,0.0,0.0,87,0.00,CLR,,0.00,WeatherDisplay:10.37,2013-02-06 03:31:00,
2013-02-05 18:36:00,25.3,22.3,29.44,North,0,0.0,0.0,88,0.00,CLR,,0.00,WeatherDisplay:10.37,2013-02-06 03:36:00,
2013-02-05 18:41:00,25.2,21.8,29.44,North,0,0.0,0.0,87,0.00,CLR,,0.00,WeatherDisplay:10.37,2013-02-06 03:41:00,
2013-02-05 18:46:00,24.8,21.8,29.44,North,0,0.0,0.0,88,0.00,CLR,,0.00,WeatherDisplay:10.37,2013-02-06 03:46:00,
2013-02-05 18:51:00,25.0,21.9,29.41,North,0,0.0,0.0,88,0.00,CLR,,0.00,WeatherDisplay:10.37,2013-02-06 03:51:00,
2013-02-05 18:56:00,24.8,22.0,29.41,North,0,0.0,0.0,89,0.00,CLR,,0.00,WeatherDisplay:10.37,2013-02-06 03:56:00,
2013-02-05 19:01:00,24.6,21.8,29.41,North,0,0.0,0.0,89,0.00,CLR,,0.00,WeatherDisplay:10.37,2013-02-06 04:01:00,
2013-02-05 19:06:00,24.4,21.7,29.44,North,0,0.0,0.0,89,0.00,CLR,,0.00,WeatherDisplay:10.37,2013-02-06 04:06:00,
2013-02-05 19:11:00,23.7,21.0,29.44,North,0,0.0,0.0,89,0.00,CLR,,0.00,WeatherDisplay:10.37,2013-02-06 04:11:00,
2013-02-05 19:16:00,23.5,20.8,29.44,North,0,0.0,0.0,89,0.00,CLR,,0.00,WeatherDisplay:10.37,2013-02-06 04:16:00,
2013-02-05 19:21:00,23.2,20.4,29.44,North,0,0.0,0.0,89,0.00,CLR,,0.00,WeatherDisplay:10.37,2013-02-06 04:21:00,
2013-02-05 19:26:00,22.8,20.1,29.44,North,0,0.0,0.0,89,0.00,CLR,,0.00,WeatherDisplay:10.37,2013-02-06 04:26:00,
2013-02-05 19:31:00,22.6,19.9,29.44,North,0,0.0,0.0,89,0.00,CLR,,0.00,WeatherDisplay:10.37,2013-02-06 04:31:00,
2013-02-05 19:36:00,22.6,19.9,29.41,North,0,0.0,0.0,89,0.00,CLR,,0.00,WeatherDisplay:10.37,2013-02-06 04:36:00,
2013-02-05 19:41:00,22.1,19.4,29.41,North,0,0.0,0.0,89,0.00,CLR,,0.00,WeatherDisplay:10.37,2013-02-06 04:41:00,
2013-02-05 19:47:00,21.9,19.2,29.41,North,0,0.0,0.0,89,0.00,CLR,,0.00,WeatherDisplay:10.37,2013-02-06 04:47:00,
2013-02-05 19:52:00,22.3,19.8,29.44,North,0,0.0,0.0,90,0.00,CLR,,0.00,WeatherDisplay:10.37,2013-02-06 04:52:00,
2013-02-05 19:57:00,22.1,19.6,29.44,North,0,0.0,0.0,90,0.00,CLR,,0.00,WeatherDisplay:10.37,2013-02-06 04:57:00,
2013-02-05 20:00:00,21.9,19.4,29.44,North,0,0.0,0.0,90,0.00,CLR,,0.00,WeatherDisplay:10.37,2013-02-06 05:00:00,
2013-02-05 20:03:00,21.7,19.3,29.44,North,0,0.0,0.0,90,0.00,CLR,,0.00,WeatherDisplay:10.37,2013-02-06 05:03:00,
2013-02-05 20:08:00,21.6,19.1,29.44,North,0,0.0,0.0,90,0.00,CLR,,0.00,WeatherDisplay:10.37,2013-02-06 05:08:00,
2013-02-05 20:13:00,21.2,18.7,29.44,North,0,0.0,0.0,90,0.00,CLR,,0.00,WeatherDisplay:10.37,2013-02-06 05:13:00,
2013-02-05 20:18:00,21.0,18.5,29.41,North,0,0.0,0.0,90,0.00,CLR,,0.00,WeatherDisplay:10.37,2013-02-06 05:18:00,
2013-02-05 20:23:00,20.7,18.2,29.41,North,0,0.0,0.0,90,0.00,CLR,,0.00,WeatherDisplay:10.37,2013-02-06 05:23:00,
2013-02-05 20:28:00,20.5,18.0,29.41,North,0,0.0,0.0,90,0.00,CLR,,0.00,WeatherDisplay:10.37,2013-02-06 05:28:00,
2013-02-05 20:33:00,20.5,18.3,29.41,North,0,0.0,0.0,91,0.00,CLR,,0.00,WeatherDisplay:10.37,2013-02-06 05:33:00,
2013-02-05 20:38:00,20.5,18.3,29.41,North,0,0.0,0.0,91,0.00,CLR,,0.00,WeatherDisplay:10.37,2013-02-06 05:38:00,
2013-02-05 20:43:00,20.3,18.1,29.41,North,0,0.0,0.0,91,0.00,CLR,,0.00,WeatherDisplay:10.37,2013-02-06 05:43:00,
2013-02-05 20:48:00,20.1,17.9,29.41,North,0,0.0,0.0,91,0.00,CLR,,0.00,WeatherDisplay:10.37,2013-02-06 05:48:00,
2013-02-05 20:53:00,20.1,17.9,29.41,North,0,0.0,0.0,91,0.00,CLR,,0.00,WeatherDisplay:10.37,2013-02-06 05:53:00,
2013-02-05 20:55:00,20.1,17.9,29.41,North,0,0.0,0.0,91,0.00,CLR,,0.00,WeatherDisplay:10.37,2013-02-06 05:55:00,
2013-02-05 21:01:00,19.8,17.6,29.41,North,0,0.0,0.0,91,0.00,CLR,,0.00,WeatherDisplay:10.37,2013-02-06 06:01:00,
2013-02-05 21:06:00,19.9,17.7,29.44,North,0,0.0,0.0,91,0.00,CLR,,0.00,WeatherDisplay:10.37,2013-02-06 06:06:00,
2013-02-05 21:11:00,19.6,17.4,29.44,North,0,0.0,0.0,91,0.00,CLR,,0.00,WeatherDisplay:10.37,2013-02-06 06:11:00,
2013-02-05 21:16:00,19.9,17.7,29.44,North,0,0.0,0.0,91,0.00,CLR,,0.00,WeatherDisplay:10.37,2013-02-06 06:16:00,
2013-02-05 21:21:00,20.1,18.2,29.41,North,0,0.0,0.0,92,0.00,CLR,,0.00,WeatherDisplay:10.37,2013-02-06 06:21:00,
2013-02-05 21:26:00,19.9,18.0,29.41,North,0,0.0,0.0,92,0.00,CLR,,0.00,WeatherDisplay:10.37,2013-02-06 06:26:00,
2013-02-05 21:31:00,20.5,18.8,29.41,North,0,0.0,0.0,93,0.00,CLR,,0.00,WeatherDisplay:10.37,2013-02-06 06:31:00,
2013-02-05 21:36:00,20.5,19.0,29.41,North,0,0.0,0.0,94,0.00,CLR,,0.00,WeatherDisplay:10.37,2013-02-06 06:36:00,
2013-02-05 21:41:00,20.3,18.6,29.41,North,0,0.0,0.0,93,0.00,CLR,,0.00,WeatherDisplay:10.37,2013-02-06 06:41:00,
2013-02-05 21:46:00,20.1,18.2,29.41,North,0,0.0,0.0,92,0.00,CLR,,0.00,WeatherDisplay:10.37,2013-02-06 06:46:00,
2013-02-05 21:51:00,20.3,18.3,29.41,NNE,22,0.0,0.0,92,0.00,CLR,,0.00,WeatherDisplay:10.37,2013-02-06 06:51:00,
2013-02-05 21:56:00,20.3,18.3,29.41,NNE,22,0.0,0.0,92,0.00,CLR,,0.00,WeatherDisplay:10.37,2013-02-06 06:56:00,
2013-02-05 22:01:00,20.5,18.8,29.41,NNE,22,0.0,0.0,93,0.00,CLR,,0.00,WeatherDisplay:10.37,2013-02-06 07:01:00,
2013-02-05 22:06:00,20.7,19.0,29.41,NNE,22,0.0,0.0,93,0.00,CLR,,0.00,WeatherDisplay:10.37,2013-02-06 07:06:00,
2013-02-05 22:11:00,20.8,19.1,29.41,NNE,22,0.0,0.0,93,0.00,CLR,,0.00,WeatherDisplay:10.37,2013-02-06 07:11:00,
2013-02-05 22:16:00,20.7,19.0,29.41,WNW,292,0.0,0.0,93,0.00,CLR,,0.00,WeatherDisplay:10.37,2013-02-06 07:16:00,
2013-02-05 22:21:00,20.7,19.0,29.41,WNW,292,0.0,0.0,93,0.00,CLR,,0.00,WeatherDisplay:10.37,2013-02-06 07:21:00,
2013-02-05 22:26:00,20.7,19.0,29.41,WNW,292,0.0,0.0,93,0.00,CLR,,0.00,WeatherDisplay:10.37,2013-02-06 07:26:00,
2013-02-05 22:31:00,20.8,19.1,29.41,North,0,0.0,0.0,93,0.00,CLR,,0.00,WeatherDisplay:10.37,2013-02-06 07:31:00,
2013-02-05 22:36:00,20.8,19.1,29.41,North,0,0.0,0.0,93,0.00,CLR,,0.00,WeatherDisplay:10.37,2013-02-06 07:36:00,
2013-02-05 22:41:00,20.8,19.1,29.41,North,0,0.0,0.0,93,0.00,CLR,,0.00,WeatherDisplay:10.37,2013-02-06 07:41:00,
2013-02-05 22:46:00,20.7,19.0,29.41,North,0,0.0,0.0,93,0.00,CLR,,0.00,WeatherDisplay:10.37,2013-02-06 07:46:00,
2013-02-05 22:51:00,20.7,19.0,29.44,North,0,0.0,0.0,93,0.00,CLR,,0.00,WeatherDisplay:10.37,2013-02-06 07:51:00,
2013-02-05 22:56:00,20.7,19.0,29.44,North,0,0.0,0.0,93,0.00,CLR,,0.00,WeatherDisplay:10.37,2013-02-06 07:56:00,
2013-02-05 23:01:00,20.8,19.1,29.44,North,0,0.0,0.0,93,0.00,CLR,,0.00,WeatherDisplay:10.37,2013-02-06 08:01:00,
2013-02-05 23:06:00,20.8,19.1,29.41,North,0,0.0,0.0,93,0.00,CLR,,0.00,WeatherDisplay:10.37,2013-02-06 08:06:00,
2013-02-05 23:19:00,21.2,19.7,29.41,North,0,0.0,0.0,94,0.00,CLR,,0.00,WeatherDisplay:10.37,2013-02-06 08:19:00,
2013-02-05 23:24:00,21.2,19.7,29.41,North,0,0.0,0.0,94,0.00,CLR,,0.00,WeatherDisplay:10.37,2013-02-06 08:24:00,
2013-02-05 23:29:00,21.2,19.7,29.41,North,0,0.0,0.0,94,0.00,CLR,,0.00,WeatherDisplay:10.37,2013-02-06 08:29:00,
2013-02-05 23:34:00,21.2,19.7,29.41,North,0,0.0,0.0,94,0.00,CLR,,0.00,WeatherDisplay:10.37,2013-02-06 08:34:00,
2013-02-05 23:39:00,21.2,19.7,29.41,North,0,0.0,0.0,94,0.00,CLR,,0.00,WeatherDisplay:10.37,2013-02-06 08:39:00,
2013-02-05 23:44:00,21.2,19.5,29.41,North,0,0.0,0.0,93,0.00,CLR,,0.00,WeatherDisplay:10.37,2013-02-06 08:44:00,
2013-02-05 23:49:00,21.2,19.5,29.41,North,0,0.0,0.0,93,0.00,CLR,,0.00,WeatherDisplay:10.37,2013-02-06 08:49:00,
2013-02-05 23:54:00,21.2,19.7,29.41,North,0,0.0,0.0,94,0.00,CLR,,0.00,WeatherDisplay:10.37,2013-02-06 08:54:00,
2013-02-05 23:59:00,21.2,19.7,29.41,North,0,0.0,0.0,94,0.00,CLR,,0.00,WeatherDisplay:10.37,2013-02-06 08:59:00,